Time;durP1;ratioP1;P1;durP2;ratioP2;P2;SDS_P1;SDS_P2;PMS_P1;PMS_P2;Temp;Humidity;BMP_temperature;BMP_pressure;BME280_temperature;BME280_humidity;BME280_pressure;Samples;Min_cycle;Max_cycle;Signal;HPM_P1;HPM_P2
2023/05/03 00:01:34;;;;;;;1.85;1.75;;;;;;;12.17;53.81;63255.88;5021650;28;20253;-76
2023/05/03 00:04:02;;;;;;;1.60;1.50;;;;;;;12.16;53.65;63252.28;5008695;28;20204;-75
2023/05/03 00:06:30;;;;;;;2.63;1.83;;;;;;;12.17;53.96;63255.34;5012607;28;20254;-76
2023/05/03 00:08:57;;;;;;;1.45;1.45;;;;;;;12.17;54.45;63253.31;5025833;28;20202;-75
2023/05/03 00:11:27;;;;;;;3.85;1.65;;;;;;;12.13;54.53;63248.66;5015551;28;20292;-76
2023/05/03 00:13:54;;;;;;;2.30;1.67;;;;;;;12.05;53.83;63237.78;5027860;28;20258;-76
2023/05/03 00:16:20;;;;;;;2.00;1.90;;;;;;;12.15;53.65;63253.28;5026167;28;20282;-74
2023/05/03 00:18:48;;;;;;;1.65;1.58;;;;;;;12.08;53.91;63249.09;5021886;28;20207;-77
2023/05/03 00:21:15;;;;;;;4.72;1.90;;;;;;;11.98;53.06;63233.63;5027324;28;20317;-75
2023/05/03 00:23:42;;;;;;;2.20;1.98;;;;;;;11.91;53.19;63228.91;5016139;28;20231;-75
2023/05/03 00:26:10;;;;;;;2.17;1.98;;;;;;;11.91;53.22;63223.81;5021126;28;20212;-76
2023/05/03 00:28:38;;;;;;;3.10;2.03;;;;;;;11.92;52.86;63232.50;5024086;28;20479;-77
2023/05/03 00:31:09;;;;;;;2.00;1.90;;;;;;;11.95;53.07;63233.06;5027543;28;20573;-75
2023/05/03 00:33:36;;;;;;;4.88;2.10;;;;;;;11.95;52.87;63230.50;5024922;28;20199;-76
2023/05/03 00:36:10;;;;;;;3.83;2.05;;;;;;;11.84;53.69;63221.16;5023199;28;20269;-76
2023/05/03 00:38:38;;;;;;;3.85;2.72;;;;;;;11.89;53.86;63226.34;5011255;28;20199;-76
2023/05/03 00:41:06;;;;;;;3.90;1.80;;;;;;;11.79;54.85;63215.97;5008247;28;20199;-74
2023/05/03 00:43:33;;;;;;;2.28;2.08;;;;;;;11.71;54.54;63210.22;5014355;28;20198;-76
2023/05/03 00:46:03;;;;;;;2.25;2.15;;;;;;;11.69;53.99;63203.06;5021986;28;20237;-77
2023/05/03 00:48:30;;;;;;;2.70;1.85;;;;;;;11.60;53.78;63197.31;5015474;28;20191;-75
2023/05/03 00:51:00;;;;;;;2.05;1.92;;;;;;;11.62;52.98;63198.84;5025996;28;20443;-76
2023/05/03 00:53:30;;;;;;;1.88;1.52;;;;;;;11.60;53.07;63194.75;5023088;28;20203;-75
2023/05/03 00:56:00;;;;;;;2.95;1.85;;;;;;;11.49;53.01;63183.34;5023929;28;20269;-75
2023/05/03 00:58:28;;;;;;;2.28;2.05;;;;;;;11.45;53.49;63183.78;5026389;28;20267;-76
2023/05/03 01:00:55;;;;;;;3.53;1.90;;;;;;;11.39;54.12;63175.53;5027639;28;20205;-76
2023/05/03 01:03:24;;;;;;;2.08;1.98;;;;;;;11.27;54.47;63162.59;5023874;28;20217;-75
2023/05/03 01:06:01;;;;;;;5.28;2.25;;;;;;;11.25;54.05;63155.44;5023931;28;20218;-75
2023/05/03 01:08:36;;;;;;;2.55;2.15;;;;;;;11.19;55.29;63149.75;5026603;28;20252;-76
2023/05/03 01:11:09;;;;;;;2.38;2.00;;;;;;;11.14;56.12;63149.13;5026791;28;20444;-76
2023/05/03 01:13:44;;;;;;;5.15;2.20;;;;;;;11.08;55.40;63143.44;5023912;28;20218;-75
2023/05/03 01:16:19;;;;;;;2.20;2.05;;;;;;;11.16;55.14;63151.22;5022037;28;20221;-75
2023/05/03 01:18:50;;;;;;;4.18;1.88;;;;;;;11.06;54.98;63138.31;5024339;28;20198;-76
2023/05/03 01:21:18;;;;;;;3.03;2.10;;;;;;;11.05;54.64;63140.34;5023856;28;20314;-75
2023/05/03 01:23:59;;;;;;;1.58;1.58;;;;;;;10.97;54.79;63134.59;5007342;28;20282;-77
2023/05/03 01:26:28;;;;;;;2.00;1.90;;;;;;;10.96;55.24;63131.00;5024394;28;20280;-77
2023/05/03 01:28:56;;;;;;;2.05;1.73;;;;;;;11.05;55.24;63139.81;5026108;28;20225;-75
2023/05/03 01:31:28;;;;;;;5.85;2.03;;;;;;;11.06;55.34;63138.81;5022908;28;20244;-75
2023/05/03 01:34:14;;;;;;;3.58;1.90;;;;;;;10.84;55.82;63121.13;5022047;28;20203;-75
2023/05/03 01:36:44;;;;;;;5.38;2.03;;;;;;;10.91;55.41;63127.84;5025044;28;20238;-76
2023/05/03 01:39:16;;;;;;;2.92;2.00;;;;;;;10.68;56.08;63104.06;5019683;28;20190;-76
2023/05/03 01:41:47;;;;;;;2.30;2.08;;;;;;;10.84;55.44;63112.97;5006583;28;20462;-76
2023/05/03 01:44:15;;;;;;;2.40;2.17;;;;;;;10.81;55.16;63114.97;5009881;28;20274;-74
2023/05/03 01:46:43;;;;;;;2.30;2.20;;;;;;;10.84;55.14;63123.16;5015654;28;20226;-76
2023/05/03 01:49:11;;;;;;;2.97;2.40;;;;;;;10.89;55.35;63125.81;5022250;28;20217;-74
2023/05/03 01:51:38;;;;;;;2.53;2.13;;;;;;;10.76;55.11;63110.31;5023400;28;20285;-76
2023/05/03 01:54:06;;;;;;;3.55;2.15;;;;;;;10.81;54.97;63115.47;5024484;28;20242;-76
2023/05/03 01:56:35;;;;;;;3.92;1.95;;;;;;;10.78;55.09;63112.38;5006463;28;20228;-78
2023/05/03 01:59:03;;;;;;;1.77;1.67;;;;;;;10.85;54.97;63116.56;5006446;28;20206;-76
2023/05/03 02:01:31;;;;;;;2.20;2.00;;;;;;;10.82;54.95;63116.50;5011942;28;20387;-76
2023/05/03 02:03:58;;;;;;;3.25;1.90;;;;;;;10.80;54.73;63114.47;5025348;28;20218;-76
2023/05/03 02:06:27;;;;;;;2.10;2.00;;;;;;;10.69;55.19;63097.44;5025323;28;20227;-76
2023/05/03 02:08:54;;;;;;;2.33;2.15;;;;;;;10.52;55.44;63084.94;5025571;28;20194;-76
2023/05/03 02:11:21;;;;;;;2.60;2.03;;;;;;;10.46;55.77;63079.25;5022765;28;20238;-75
2023/05/03 02:13:49;;;;;;;2.28;2.17;;;;;;;10.20;57.12;63052.34;5025757;28;20206;-76
2023/05/03 02:16:18;;;;;;;2.03;1.92;;;;;;;10.26;56.83;63056.53;5019327;28;20226;-75
2023/05/03 02:18:45;;;;;;;2.70;2.22;;;;;;;10.30;57.01;63060.16;5021742;28;20249;-75
2023/05/03 02:21:13;;;;;;;3.55;2.20;;;;;;;10.32;56.77;63067.81;5026329;28;20538;-76
2023/05/03 02:23:41;;;;;;;2.47;2.28;;;;;;;10.35;56.95;63067.88;5024303;28;20199;-76
2023/05/03 02:26:08;;;;;;;3.42;2.50;;;;;;;10.32;56.71;63064.75;5016085;28;20272;-76
2023/05/03 02:28:37;;;;;;;2.20;2.10;;;;;;;10.39;56.60;63069.97;5044502;28;20221;-75
2023/05/03 02:31:05;;;;;;;2.95;1.77;;;;;;;10.43;55.92;63076.66;5041560;28;20256;-75
2023/05/03 02:33:33;;;;;;;5.13;2.30;;;;;;;10.50;55.94;63078.31;5021885;28;20278;-77
2023/05/03 02:36:00;;;;;;;2.38;2.20;;;;;;;10.37;55.97;63069.94;5005095;28;20200;-76
2023/05/03 02:38:28;;;;;;;2.92;2.40;;;;;;;10.46;56.35;63079.25;5017312;28;20569;-76
2023/05/03 02:40:55;;;;;;;2.70;2.50;;;;;;;10.53;56.13;63083.44;5025232;28;20206;-75
2023/05/03 02:43:22;;;;;;;2.70;2.50;;;;;;;10.53;55.85;63083.94;5016312;28;20199;-76
2023/05/03 02:45:49;;;;;;;2.72;2.35;;;;;;;10.57;55.53;63087.56;5008396;28;20231;-75
2023/05/03 02:48:17;;;;;;;2.50;2.33;;;;;;;10.58;55.96;63086.56;5025068;28;20203;-75
2023/05/03 02:50:45;;;;;;;2.65;1.95;;;;;;;10.58;55.89;63086.06;5024569;28;20198;-75
2023/05/03 02:53:12;;;;;;;2.10;2.00;;;;;;;10.50;56.28;63083.38;5021302;28;20245;-76
2023/05/03 02:55:40;;;;;;;2.10;1.90;;;;;;;10.58;56.31;63094.22;5005332;28;20234;-75
2023/05/03 02:58:08;;;;;;;2.45;2.25;;;;;;;10.65;56.05;63098.41;5012538;28;20596;-76
2023/05/03 03:00:35;;;;;;;2.60;2.40;;;;;;;10.57;56.44;63087.56;5022284;28;20487;-75
2023/05/03 03:03:02;;;;;;;2.85;2.60;;;;;;;10.60;56.05;63088.66;5010151;28;20241;-74
2023/05/03 03:05:29;;;;;;;2.53;2.40;;;;;;;10.46;56.68;63076.69;5016567;28;20195;-75
2023/05/03 03:07:58;;;;;;;4.30;2.13;;;;;;;10.52;56.65;63079.84;5024340;28;20214;-75
2023/05/03 03:10:26;;;;;;;2.42;2.33;;;;;;;10.40;56.86;63067.97;5024639;28;20213;-75
2023/05/03 03:12:53;;;;;;;3.17;2.25;;;;;;;10.48;56.85;63078.78;5018358;28;20235;-76
2023/05/03 03:15:21;;;;;;;3.92;2.25;;;;;;;10.37;57.02;63069.94;5008802;28;20199;-75
2023/05/03 03:17:48;;;;;;;2.13;1.90;;;;;;;10.35;57.07;63068.38;5016500;28;20285;-75
2023/05/03 03:20:15;;;;;;;2.15;2.05;;;;;;;10.31;57.17;63061.19;5013220;28;20243;-75
2023/05/03 03:22:44;;;;;;;2.25;2.08;;;;;;;10.39;57.18;63069.44;5011444;28;20542;-75
2023/05/03 03:25:12;;;;;;;2.45;2.25;;;;;;;10.38;57.24;63071.50;5009328;28;20210;-74
2023/05/03 03:27:39;;;;;;;2.58;2.35;;;;;;;10.23;56.89;63055.47;5025041;28;20222;-76
2023/05/03 03:30:09;;;;;;;2.33;2.13;;;;;;;10.32;56.86;63059.66;5017592;28;20499;-75
2023/05/03 03:32:37;;;;;;;2.35;2.15;;;;;;;10.25;56.64;63057.53;5027230;28;20237;-74
2023/05/03 03:35:04;;;;;;;4.60;2.60;;;;;;;10.21;56.21;63051.38;5027559;28;20500;-75
2023/05/03 03:37:32;;;;;;;3.53;2.63;;;;;;;10.20;56.22;63049.78;5025629;28;20223;-76
2023/05/03 03:39:59;;;;;;;2.70;2.50;;;;;;;10.11;56.07;63045.59;5020970;28;20211;-76
2023/05/03 03:42:27;;;;;;;2.53;2.20;;;;;;;10.03;57.04;63029.66;5008485;28;20465;-74
2023/05/03 03:44:54;;;;;;;5.22;2.80;;;;;;;10.12;56.61;63041.53;5016989;28;20195;-76
2023/05/03 03:47:21;;;;;;;5.47;2.38;;;;;;;10.16;56.66;63048.72;5024829;28;20229;-74
2023/05/03 03:49:49;;;;;;;2.60;2.40;;;;;;;10.20;57.12;63049.78;5026776;28;20383;-75
2023/05/03 03:52:16;;;;;;;2.13;2.03;;;;;;;10.16;56.74;63048.22;5027648;28;20248;-73
2023/05/03 03:54:43;;;;;;;6.78;2.55;;;;;;;10.21;56.29;63053.91;5025532;28;20198;-74
2023/05/03 03:57:11;;;;;;;2.72;2.50;;;;;;;10.21;56.69;63050.84;5008170;28;20299;-75
2023/05/03 03:59:39;;;;;;;4.32;2.33;;;;;;;10.20;57.23;63047.25;5024114;28;20206;-74
2023/05/03 04:02:07;;;;;;;2.90;2.47;;;;;;;10.33;56.79;63065.81;5027727;28;20222;-77
2023/05/03 04:04:35;;;;;;;3.00;2.63;;;;;;;10.19;56.49;63046.75;5024701;28;20275;-75
2023/05/03 04:07:03;;;;;;;2.58;2.38;;;;;;;10.14;57.10;63051.75;5026629;28;20476;-73
2023/05/03 04:09:30;;;;;;;4.25;2.70;;;;;;;10.12;57.13;63042.03;5025088;28;20555;-76
2023/05/03 04:11:57;;;;;;;3.20;2.33;;;;;;;10.19;57.70;63054.38;5022187;28;20297;-75
2023/05/03 04:14:24;;;;;;;2.72;2.30;;;;;;;10.14;57.73;63044.13;5022409;28;20202;-74
2023/05/03 04:16:53;;;;;;;5.60;2.33;;;;;;;10.20;58.12;63049.78;5028015;28;20226;-75
2023/05/03 04:19:21;;;;;;;2.60;2.40;;;;;;;10.17;57.54;63049.25;5029072;28;20278;-75
2023/05/03 04:21:48;;;;;;;3.35;3.03;;;;;;;10.11;58.06;63041.00;5017478;28;20219;-76
2023/05/03 04:24:16;;;;;;;3.08;2.75;;;;;;;10.05;58.01;63034.78;5019430;28;20195;-75
2023/05/03 04:26:43;;;;;;;3.80;2.47;;;;;;;10.17;58.75;63049.25;5016183;28;20294;-74
2023/05/03 04:29:11;;;;;;;3.83;2.55;;;;;;;10.09;58.13;63041.50;5027187;28;20516;-74
2023/05/03 04:31:38;;;;;;;2.55;2.35;;;;;;;10.09;58.80;63038.44;5021524;28;20248;-76
2023/05/03 04:34:09;;;;;;;3.35;2.60;;;;;;;10.10;58.23;63039.44;5027062;28;20199;-75
2023/05/03 04:36:37;;;;;;;3.85;2.70;;;;;;;10.08;58.33;63043.00;5028034;28;20226;-74
2023/05/03 04:39:05;;;;;;;2.83;2.58;;;;;;;10.06;58.25;63038.34;5023965;28;20415;-75
2023/05/03 04:41:33;;;;;;;4.88;2.65;;;;;;;10.18;58.06;63050.28;5016070;28;20219;-75
2023/05/03 04:44:00;;;;;;;2.00;1.83;;;;;;;10.16;58.34;63043.63;5008737;28;20247;-74
2023/05/03 04:46:27;;;;;;;4.80;2.80;;;;;;;10.09;58.58;63044.03;5015123;28;20530;-75
2023/05/03 04:48:55;;;;;;;2.58;2.38;;;;;;;10.07;58.76;63041.41;5019584;28;20209;-75
2023/05/03 04:51:24;;;;;;;2.85;2.65;;;;;;;10.16;58.66;63048.72;5011454;28;20228;-74
2023/05/03 04:53:50;;;;;;;2.75;2.55;;;;;;;10.09;59.43;63041.50;5022556;28;20206;-74
2023/05/03 04:56:19;;;;;;;3.03;2.80;;;;;;;10.05;61.08;63032.25;5027091;28;20299;-73
2023/05/03 04:58:46;;;;;;;4.70;2.75;;;;;;;10.01;63.84;63033.19;5021864;28;20225;-74
2023/05/03 05:01:13;;;;;;;5.47;3.05;;;;;;;9.91;64.76;63019.78;5021582;28;20219;-73
2023/05/03 05:03:40;;;;;;;3.08;2.60;;;;;;;9.87;67.09;63016.16;5024615;28;20534;-75
2023/05/03 05:06:08;;;;;;;4.53;2.58;;;;;;;9.80;68.76;63008.41;5020320;28;20201;-75
2023/05/03 05:08:37;;;;;;;5.57;2.60;;;;;;;9.78;69.19;63008.88;5020485;28;20225;-74
2023/05/03 05:11:04;;;;;;;4.80;2.50;;;;;;;9.91;67.25;63022.31;5008988;28;20245;-76
2023/05/03 05:13:32;;;;;;;3.10;2.65;;;;;;;9.98;66.74;63027.53;5027211;28;20234;-75
2023/05/03 05:16:00;;;;;;;2.50;2.30;;;;;;;9.98;67.77;63029.56;5026301;28;20209;-75
2023/05/03 05:18:28;;;;;;;6.50;3.00;;;;;;;10.24;67.81;63056.47;5027273;28;20483;-76
2023/05/03 05:20:54;;;;;;;4.30;2.65;;;;;;;10.34;66.19;63067.34;5025335;28;20201;-75
2023/05/03 05:23:21;;;;;;;2.58;2.38;;;;;;;10.42;66.92;63075.63;5025789;28;20218;-75
2023/05/03 05:25:50;;;;;;;4.47;2.65;;;;;;;10.32;67.28;63059.66;5026498;28;20217;-74
2023/05/03 05:28:17;;;;;;;2.97;2.65;;;;;;;10.43;67.47;63078.69;5027433;28;20265;-76
2023/05/03 05:30:44;;;;;;;3.10;2.90;;;;;;;10.61;64.67;63091.72;5026487;28;20246;-75
2023/05/03 05:33:11;;;;;;;2.80;2.28;;;;;;;10.57;65.65;63090.13;5025166;28;20242;-76
2023/05/03 05:35:38;;;;;;;3.00;2.80;;;;;;;10.80;63.18;63113.94;5026731;28;20206;-78
2023/05/03 05:38:06;;;;;;;3.47;2.40;;;;;;;10.95;63.71;63124.38;5026925;28;20296;-77
2023/05/03 05:40:33;;;;;;;2.50;2.40;;;;;;;11.08;63.12;63140.38;5026070;28;20199;-75
2023/05/03 05:43:02;;;;;;;2.55;2.35;;;;;;;11.27;61.83;63165.13;5026811;28;20219;-76
2023/05/03 05:45:29;;;;;;;7.85;2.45;;;;;;;11.22;62.29;63152.84;5027008;28;20523;-76
2023/05/03 05:47:57;;;;;;;2.83;2.55;;;;;;;11.47;63.10;63180.75;5026097;28;20578;-76
2023/05/03 05:50:24;;;;;;;3.90;2.40;;;;;;;11.27;62.50;63160.56;5026532;28;20207;-76
2023/05/03 05:52:52;;;;;;;8.43;3.20;;;;;;;11.07;62.32;63141.88;5026351;28;20234;-76
2023/05/03 05:55:19;;;;;;;6.53;3.47;;;;;;;11.11;62.14;63149.09;5025665;28;20199;-75
2023/05/03 05:57:47;;;;;;;5.88;3.20;;;;;;;10.92;61.36;63126.88;5026886;28;20285;-76
2023/05/03 06:00:17;;;;;;;3.05;2.75;;;;;;;10.94;62.67;63126.38;5026104;28;20199;-76
2023/05/03 06:02:45;;;;;;;2.30;2.15;;;;;;;11.03;61.81;63132.63;5025660;28;20225;-75
2023/05/03 06:05:12;;;;;;;2.42;2.22;;;;;;;10.99;62.13;63131.06;5025375;28;20202;-77
2023/05/03 06:07:40;;;;;;;2.83;2.58;;;;;;;11.29;61.27;63162.13;5026990;28;20222;-75
2023/05/03 06:10:08;;;;;;;2.63;2.47;;;;;;;11.38;61.05;63176.53;5025671;28;20253;-77
2023/05/03 06:12:36;;;;;;;3.28;2.67;;;;;;;11.63;59.91;63199.91;5027458;28;20286;-76
2023/05/03 06:15:04;;;;;;;4.55;2.55;;;;;;;11.79;58.53;63213.94;5027455;28;20203;-76
2023/05/03 06:17:33;;;;;;;3.50;2.85;;;;;;;11.69;60.11;63203.56;5025282;28;20234;-77
2023/05/03 06:20:00;;;;;;;3.17;2.75;;;;;;;11.56;61.06;63193.16;5026757;28;20218;-77
2023/05/03 06:22:29;;;;;;;5.13;2.30;;;;;;;11.63;63.29;63197.84;5026235;28;20237;-76
2023/05/03 06:24:57;;;;;;;2.80;2.65;;;;;;;11.81;63.09;63218.56;5027531;28;20213;-75
2023/05/03 06:27:25;;;;;;;3.17;2.97;;;;;;;11.98;61.72;63233.09;5025884;28;20229;-75
2023/05/03 06:29:52;;;;;;;3.17;2.60;;;;;;;11.95;62.04;63230.00;5025669;28;20354;-75
2023/05/03 06:32:20;;;;;;;5.50;3.08;;;;;;;11.98;61.95;63233.09;5025342;28;20242;-77
2023/05/03 06:34:48;;;;;;;6.00;2.55;;;;;;;12.05;61.79;63240.88;5025776;28;20521;-75
2023/05/03 06:37:16;;;;;;;3.90;2.70;;;;;;;12.15;61.64;63253.78;5027008;28;20229;-77
2023/05/03 06:39:43;;;;;;;2.72;2.50;;;;;;;12.09;61.44;63244.50;5027041;28;20209;-77
2023/05/03 06:42:10;;;;;;;2.60;2.30;;;;;;;12.06;60.83;63241.91;5024792;28;20233;-76
2023/05/03 06:44:38;;;;;;;3.33;2.60;;;;;;;12.25;61.24;63263.66;5023440;28;20620;-77
2023/05/03 06:47:05;;;;;;;3.00;2.80;;;;;;;12.46;60.78;63282.84;5025034;28;20245;-76
2023/05/03 06:49:33;;;;;;;2.90;2.70;;;;;;;12.54;60.52;63291.16;5025774;28;20553;-75
2023/05/03 06:52:01;;;;;;;3.45;2.60;;;;;;;12.66;60.11;63306.69;5026665;28;20238;-76
2023/05/03 06:54:29;;;;;;;3.58;2.72;;;;;;;12.80;59.42;63318.63;5025209;28;20508;-76
2023/05/03 06:56:56;;;;;;;2.25;2.15;;;;;;;12.82;59.28;63322.75;5026375;28;20222;-77
2023/05/03 06:59:23;;;;;;;2.95;2.30;;;;;;;12.82;57.51;63322.22;5025343;28;20233;-76
2023/05/03 07:01:50;;;;;;;3.90;3.22;;;;;;;12.88;58.15;63326.41;5025934;28;20218;-76
2023/05/03 07:04:17;;;;;;;2.28;2.17;;;;;;;12.89;58.62;63329.50;5028149;28;20199;-75
2023/05/03 07:06:44;;;;;;;2.70;2.50;;;;;;;12.81;58.52;63319.16;5025120;28;20218;-78
2023/05/03 07:09:13;;;;;;;4.15;3.10;;;;;;;12.68;60.08;63310.78;5025873;28;20206;-77
2023/05/03 07:11:48;;;;;;;3.40;2.83;;;;;;;12.67;62.00;63302.06;5026043;28;20223;-78
2023/05/03 07:14:15;;;;;;;4.65;2.42;;;;;;;12.76;61.01;63317.03;5025957;28;20394;-76
2023/05/03 07:16:42;;;;;;;2.97;2.80;;;;;;;12.82;59.70;63322.75;5025992;28;20222;-76
2023/05/03 07:19:10;;;;;;;3.40;2.40;;;;;;;12.75;59.55;63316.00;5019328;28;20211;-77
2023/05/03 07:21:37;;;;;;;3.90;2.30;;;;;;;12.66;60.71;63306.16;5025019;28;20226;-76
2023/05/03 07:24:06;;;;;;;3.97;2.92;;;;;;;12.70;61.77;63308.25;5026008;28;20202;-77
2023/05/03 07:26:36;;;;;;;4.15;2.50;;;;;;;12.93;60.82;63333.63;5026713;28;20218;-76
2023/05/03 07:29:03;;;;;;;3.15;2.08;;;;;;;12.65;61.69;63305.09;5027322;28;20221;-76
2023/05/03 07:31:31;;;;;;;2.45;2.28;;;;;;;12.63;62.17;63305.59;5028832;28;20218;-75
2023/05/03 07:33:58;;;;;;;2.63;2.42;;;;;;;12.63;62.50;63303.56;5028069;28;20241;-77
2023/05/03 07:36:25;;;;;;;2.55;2.35;;;;;;;13.02;62.76;63340.44;5027394;28;20558;-76
2023/05/03 07:38:52;;;;;;;3.20;3.00;;;;;;;13.29;60.22;63370.97;5026981;28;20207;-75
2023/05/03 07:41:19;;;;;;;2.92;2.80;;;;;;;13.29;59.96;63374.06;5026565;28;20230;-76
2023/05/03 07:43:48;;;;;;;3.20;3.00;;;;;;;13.29;60.00;63370.97;5027625;28;20198;-77
2023/05/03 07:46:15;;;;;;;3.63;2.70;;;;;;;13.28;59.53;63367.41;5026566;28;20215;-76
2023/05/03 07:48:42;;;;;;;3.28;3.08;;;;;;;13.59;59.31;63400.09;5011093;28;20226;-77
2023/05/03 07:51:09;;;;;;;2.90;2.78;;;;;;;13.88;58.71;63432.75;5005757;28;20230;-76
2023/05/03 07:53:39;;;;;;;2.78;2.58;;;;;;;14.10;57.66;63454.56;5007363;28;20237;-76
2023/05/03 07:56:06;;;;;;;2.38;2.28;;;;;;;14.31;57.47;63474.31;5007781;28;20377;-77
2023/05/03 07:58:33;;;;;;;5.45;2.78;;;;;;;14.16;58.17;63461.28;5009246;28;20441;-76
2023/05/03 08:01:02;;;;;;;2.95;2.75;;;;;;;14.15;57.26;63457.69;5009757;28;20470;-76
2023/05/03 08:03:29;;;;;;;5.78;2.67;;;;;;;14.35;56.81;63478.47;5010708;28;20206;-77
2023/05/03 08:05:56;;;;;;;2.97;2.78;;;;;;;14.60;55.36;63503.94;5011410;28;20226;-77
2023/05/03 08:08:23;;;;;;;3.97;2.83;;;;;;;14.51;55.63;63494.59;5013870;28;20207;-76
2023/05/03 08:10:52;;;;;;;3.05;2.78;;;;;;;14.55;55.73;63501.81;5010668;28;20520;-77
2023/05/03 08:13:21;;;;;;;2.60;2.40;;;;;;;14.86;55.27;63533.50;5010092;28;20230;-77
2023/05/03 08:15:48;;;;;;;4.80;2.70;;;;;;;15.21;54.21;63564.72;5009676;28;20222;-77
2023/05/03 08:18:16;;;;;;;3.75;3.05;;;;;;;15.29;54.36;63577.66;5015300;28;20195;-76
2023/05/03 08:20:45;;;;;;;3.42;3.13;;;;;;;15.17;55.04;63565.19;5009244;28;20214;-76
2023/05/03 08:23:13;;;;;;;2.90;2.70;;;;;;;15.26;54.13;63572.50;5009435;28;20266;-77
2023/05/03 08:25:41;;;;;;;3.50;3.20;;;;;;;15.47;54.54;63598.94;5008061;28;20263;-76
2023/05/03 08:28:08;;;;;;;4.45;2.88;;;;;;;15.37;54.79;63586.50;5009425;28;20230;-76
2023/05/03 08:30:35;;;;;;;2.67;2.58;;;;;;;15.83;54.26;63631.78;5008892;28;20195;-75
2023/05/03 08:33:02;;;;;;;3.50;3.22;;;;;;;15.98;54.93;63649.41;5010103;28;20241;-76
2023/05/03 08:35:30;;;;;;;5.97;3.17;;;;;;;16.44;54.45;63694.69;5008703;28;20443;-77
2023/05/03 08:37:58;;;;;;;3.53;3.10;;;;;;;15.89;52.66;63637.50;5008674;28;20234;-75
2023/05/03 08:40:28;;;;;;;3.28;3.08;;;;;;;15.93;55.32;63641.63;5008501;28;20218;-77
2023/05/03 08:42:56;;;;;;;3.47;3.28;;;;;;;16.11;53.22;63660.88;5010274;28;20218;-76
2023/05/03 08:45:24;;;;;;;2.90;2.70;;;;;;;15.68;53.33;63615.66;5009734;28;20203;-77
2023/05/03 08:47:54;;;;;;;4.45;2.67;;;;;;;15.85;53.65;63639.00;5017914;28;20214;-77
2023/05/03 08:50:22;;;;;;;4.30;3.10;;;;;;;15.87;54.15;63637.97;5028146;28;20510;-76
2023/05/03 08:52:51;;;;;;;3.10;3.00;;;;;;;15.78;54.07;63626.56;5028826;28;20614;-76
2023/05/03 08:55:18;;;;;;;3.33;3.13;;;;;;;15.56;55.03;63605.75;5029185;28;20204;-76
2023/05/03 08:57:45;;;;;;;3.65;3.45;;;;;;;15.29;55.12;63573.03;5028648;28;20222;-75
2023/05/03 09:00:13;;;;;;;3.47;3.10;;;;;;;15.35;56.02;63578.75;5027441;28;20212;-75
2023/05/03 09:02:40;;;;;;;3.42;3.25;;;;;;;15.46;56.06;63595.34;5028301;28;20407;-75
2023/05/03 09:05:37;;;;;;;3.53;3.20;;;;;;;15.37;56.40;63586.50;5027444;28;20210;-75
2023/05/03 09:08:08;;;;;;;4.07;3.20;;;;;;;15.66;55.90;63614.09;5026667;28;20230;-76
2023/05/03 09:10:39;;;;;;;3.67;3.38;;;;;;;16.22;54.86;63671.28;5030533;28;20214;-76
2023/05/03 09:13:07;;;;;;;3.33;3.13;;;;;;;16.60;54.13;63711.34;5027590;28;20256;-74
2023/05/03 09:15:35;;;;;;;3.08;2.95;;;;;;;16.90;53.48;63742.03;5028048;28;20206;-77
2023/05/03 09:18:16;;;;;;;6.47;4.03;;;;;;;17.22;51.61;63775.88;5028661;28;20241;-77
2023/05/03 09:20:50;;;;;;;3.33;3.03;;;;;;;17.76;51.23;63834.16;5007567;28;20261;-76
2023/05/03 09:23:20;;;;;;;3.28;2.95;;;;;;;18.19;51.90;63876.38;5009580;28;20195;-77
2023/05/03 09:25:48;;;;;;;3.30;3.10;;;;;;;18.00;51.14;63856.59;5007606;28;20195;-76
2023/05/03 09:28:16;;;;;;;3.78;3.30;;;;;;;17.97;51.14;63848.31;5006813;28;20390;-77
2023/05/03 09:30:45;;;;;;;2.97;2.88;;;;;;;18.27;49.25;63884.72;5007767;28;20198;-77
2023/05/03 09:33:18;;;;;;;3.10;2.90;;;;;;;18.46;48.74;63906.59;5008063;28;20518;-75
2023/05/03 09:35:56;;;;;;;3.38;3.10;;;;;;;18.22;48.79;63879.00;5008232;28;20191;-75
2023/05/03 09:38:30;;;;;;;2.88;2.67;;;;;;;18.21;48.86;63883.09;5009049;28;20466;-77
2023/05/03 09:40:58;;;;;;;2.70;2.60;;;;;;;18.64;48.49;63925.34;5007052;28;20194;-77
2023/05/03 09:43:26;;;;;;;2.90;2.78;;;;;;;18.65;48.60;63926.41;5007765;28;20218;-76
2023/05/03 09:45:53;;;;;;;2.60;2.50;;;;;;;18.56;49.32;63917.00;5007701;28;20222;-76
2023/05/03 09:48:22;;;;;;;2.67;2.58;;;;;;;18.29;47.87;63886.28;5018906;28;20402;-77
2023/05/03 09:50:49;;;;;;;2.55;2.45;;;;;;;18.34;48.42;63894.56;5028140;28;20210;-77
2023/05/03 09:53:17;;;;;;;2.75;2.55;;;;;;;17.96;50.73;63855.00;5026201;28;20244;-77
2023/05/03 09:55:49;;;;;;;3.13;3.00;;;;;;;18.28;49.85;63885.75;5026858;28;20198;-77
2023/05/03 09:58:19;;;;;;;2.85;2.70;;;;;;;18.50;50.44;63915.91;5028216;28;20202;-77
2023/05/03 10:00:50;;;;;;;2.90;2.70;;;;;;;18.27;48.84;63884.19;5027303;28;20278;-75
2023/05/03 10:03:23;;;;;;;2.67;2.45;;;;;;;18.00;49.36;63858.66;5027959;28;20206;-76
2023/05/03 10:05:51;;;;;;;2.90;2.70;;;;;;;18.10;48.86;63864.41;5030489;28;20194;-77
2023/05/03 10:08:27;;;;;;;3.30;3.05;;;;;;;18.08;48.35;63869.56;5026575;28;20229;-77
2023/05/03 10:10:55;;;;;;;2.83;2.72;;;;;;;18.41;49.67;63899.31;5025934;28;20198;-77
2023/05/03 10:13:23;;;;;;;3.15;2.83;;;;;;;18.71;48.97;63932.63;5027985;28;20487;-76
2023/05/03 10:15:59;;;;;;;2.90;2.80;;;;;;;19.07;50.04;63967.06;5029002;28;20261;-76
2023/05/03 10:18:29;;;;;;;4.40;3.20;;;;;;;19.02;48.20;63964.97;5026392;28;20224;-76
2023/05/03 10:21:02;;;;;;;3.05;2.95;;;;;;;18.62;48.13;63925.84;5029990;28;20224;-77
2023/05/03 10:23:29;;;;;;;3.00;2.80;;;;;;;18.37;47.81;63895.16;5026785;28;20202;-79
2023/05/03 10:26:19;;;;;;;2.97;2.85;;;;;;;18.73;48.71;63931.63;5027172;28;20206;-76
2023/05/03 10:28:46;;;;;;;3.30;2.72;;;;;;;18.85;48.11;63952.41;5028093;28;20266;-76
2023/05/03 10:31:45;;;;;;;2.72;2.53;;;;;;;19.11;47.27;63971.75;5027063;28;20246;-76
2023/05/03 10:34:23;;;;;;;2.95;2.75;;;;;;;18.73;49.20;63937.31;5028616;28;20229;-76
2023/05/03 10:36:52;;;;;;;2.83;2.63;;;;;;;19.08;48.34;63973.81;5027412;28;20213;-76
2023/05/03 10:39:20;;;;;;;2.58;2.35;;;;;;;19.39;47.92;64006.16;5025703;28;20237;-76
2023/05/03 10:41:58;;;;;;;2.72;2.60;;;;;;;19.66;47.12;64028.59;5026190;28;20229;-76
2023/05/03 10:44:34;;;;;;;5.85;2.70;;;;;;;19.91;46.34;64059.34;5027861;28;20186;-77
2023/05/03 10:47:11;;;;;;;2.88;2.67;;;;;;;19.79;46.62;64044.22;5024467;28;20209;-75
2023/05/03 10:49:38;;;;;;;3.55;2.78;;;;;;;19.46;46.13;64007.75;5027600;28;20186;-75
2023/05/03 10:52:46;;;;;;;2.75;2.50;;;;;;;19.05;47.63;63965.50;5025079;28;20217;-75
2023/05/03 10:55:14;;;;;;;2.55;2.45;;;;;;;19.02;48.14;63967.00;5026460;28;20456;-76
2023/05/03 10:57:47;;;;;;;3.65;2.67;;;;;;;19.15;47.82;63975.94;5026395;28;20237;-77
2023/05/03 11:00:17;;;;;;;2.60;2.25;;;;;;;19.11;47.74;63973.81;5026147;28;20190;-76
2023/05/03 11:03:12;;;;;;;3.33;2.90;;;;;;;19.53;47.35;64015.06;5025829;28;20217;-75
2023/05/03 11:05:39;;;;;;;3.03;2.72;;;;;;;19.70;46.93;64040.00;5027467;28;20194;-77
2023/05/03 11:08:12;;;;;;;2.88;2.67;;;;;;;19.48;46.48;64012.44;5025718;28;20276;-77
2023/05/03 11:10:40;;;;;;;2.60;2.50;;;;;;;19.72;48.17;64031.75;5026719;28;20274;-75
2023/05/03 11:13:08;;;;;;;2.60;2.40;;;;;;;20.05;47.63;64066.69;5028213;28;20398;-75
2023/05/03 11:15:35;;;;;;;3.22;3.05;;;;;;;20.05;46.87;64068.78;5025512;28;20190;-76
2023/05/03 11:18:03;;;;;;;2.92;2.72;;;;;;;19.73;47.41;64035.38;5018475;28;20241;-76
2023/05/03 11:20:30;;;;;;;2.67;2.58;;;;;;;20.02;46.42;64068.25;5007758;28;20226;-77
2023/05/03 11:22:57;;;;;;;3.30;2.45;;;;;;;19.93;47.26;64058.84;5007116;28;20218;-75
2023/05/03 11:25:24;;;;;;;3.00;2.90;;;;;;;19.78;46.00;64043.19;5006882;28;20229;-76
2023/05/03 11:27:52;;;;;;;3.85;3.22;;;;;;;19.49;48.45;64016.56;5009319;28;20218;-76
2023/05/03 11:30:21;;;;;;;2.60;2.50;;;;;;;20.11;47.88;64078.13;5007091;28;20210;-76
2023/05/03 11:32:48;;;;;;;3.20;2.90;;;;;;;20.12;47.17;64079.19;5009982;28;20218;-75
2023/05/03 11:35:16;;;;;;;2.78;2.58;;;;;;;19.98;46.73;64064.59;5013182;28;20230;-76
2023/05/03 11:37:44;;;;;;;2.63;2.45;;;;;;;20.61;46.74;64125.16;5009681;28;20218;-76
2023/05/03 11:40:17;;;;;;;3.10;2.90;;;;;;;20.50;45.75;64116.25;5010527;28;20195;-76
2023/05/03 11:42:54;;;;;;;2.90;2.60;;;;;;;20.23;44.87;64092.75;5012606;28;20218;-77